5K Feminino – Corrida Virtual do CORTUBA

[/vc_column_text][/vc_column][/vc_row]

Resultado 5K Feminino

Colocação GeralNomeColocação Faixa EtáriaNúmeroSexoIdadeTempo BrutoTempo LiquidoEquipeCidadeRitmo Tempo LiquidoVelocidade Tempo LiquidoDescrição ModalidadeDescrição Faixa EtáriaCertificado
1REGISLAINE DAMASIO GARCIA-365F2700:19:1700:19:17F3 ASSESSORIAArmazém00:03:5115,5605KFeminino de 25 até 29 anosImprimir
2LETICIA ASKEL BATISTA-269F2000:21:2900:21:29F3 ASSESSORIABraço do Norte00:04:1813,9605KFeminino de 20 até 24 anosImprimir
3LARISSA MARTIM-263F2200:23:3100:23:31RUNNING FRIENDSTUBARÃO00:04:4212,7605KFeminino de 20 até 24 anosImprimir
4DIONE PEREIRA PEDRINI-114F4300:23:3800:23:38TESBA RUNNERSTUBARÃO00:04:4412,6905KFeminino de 40 até 44 anosImprimir
5EMANUELLE BRERO MARCON BARDINI-137F3700:25:1400:25:14FAMILY RUNNERSCRICIÚMA00:05:0311,8905KFeminino de 35 até 39 anosImprimir
6GISELE ROSA1178F3700:25:3200:25:32RUNNING FRIENDSTUBARÃO00:05:0611,7505KFeminino de 35 até 39 anosImprimir
7KARULINE DANDOLINI2252F3700:25:4900:25:49Tubarão00:05:1011,6205KFeminino de 35 até 39 anosImprimir
8JOZEANE ZAPELINI TAVARES BECKER1239F3300:26:0600:26:06BN RUNNERSSÃO LUDGERO00:05:1311,4905KFeminino de 30 até 34 anosImprimir
9LILIAN ROQUE ANTÔNIO POLICARPI2273F3400:26:0600:26:06X RUNNERSNOVA VENEZA00:05:1311,4905KFeminino de 30 até 34 anosImprimir
10CAROLINA ALVES DOS SANTOS376F3400:26:1600:26:16BIO RUNNINGARARANGUÁ00:05:1511,4205KFeminino de 30 até 34 anosImprimir
11ROZINEIDE MARCELINO RIBEIRO1382F4500:26:4400:26:44BN RUNNERSBRAÇO DO NORTE00:05:2111,2205KFeminino de 45 até 49 anosImprimir
12VALDINÉIA VETTORETTI1421F4100:26:4600:26:46FAMILY RUNNERSCRICIÚMA00:05:2111,2105KFeminino de 40 até 44 anosImprimir
13NICOLE ROBRIGUES CHAPADA1339F1900:27:4200:27:42ZABEL RUNJaraguá do Sul00:05:3210,8305KFeminino de 18 até 19 anosImprimir
14KETHERIN GOULART DE SOUZA1258F2700:28:2000:28:20TESBA RUNNERSTUBARÃO00:05:4010,5905KFeminino de 25 até 29 anosImprimir
15GLADYS GOMES MOTA4183F3400:28:2300:28:23RUNNING FRIENDSTUBARÃO00:05:4110,5705KFeminino de 30 até 34 anosImprimir
16ELAINE CRISTINA GOULART3127F3700:28:2400:28:24RUNNING FRIENDSTUBARÃO00:05:4110,5605KFeminino de 35 até 39 anosImprimir
17BEATRIZ MOLON256F2600:28:2500:28:25RUNNING FRIENDSTUBARÃO00:05:4110,5605KFeminino de 25 até 29 anosImprimir
18TAIS RODRIGUES DE SOUZA MACAN3409F2900:28:4100:28:41STUDIO TOP FITNESSCRICIÚMA00:05:4410,4605KFeminino de 25 até 29 anosImprimir
19ANA LÚCIA DANIELEWICZ524F3300:29:0100:29:01ARARANGUÁ00:05:4810,3405KFeminino de 30 até 34 anosImprimir
20ADRIANA NEVES DOS SANTOS43F3600:29:0500:29:05ARARANGUÁ00:05:4910,3205KFeminino de 35 até 39 anosImprimir
21LUCAS BARRETO DOS REIS5275F3700:29:2400:29:24MOVE ITTUBARÃO00:05:5310,2005KFeminino de 35 até 39 anosImprimir
22SABRINA OLIVEIRA DA ROSA DOS REIS6383F3400:29:2400:29:24MOVE ITTUBARÃO00:05:5310,2005KFeminino de 30 até 34 anosImprimir
23LUCIANE PEDRINI LUCCA2282F4900:29:3900:29:39TESBA RUNNERSTUBARÃO00:05:5610,1205KFeminino de 45 até 49 anosImprimir
24MAGDA MIORANZA4290F2700:29:4900:29:49RUNNING FRIENDSTUBARÃO00:05:5810,0605KFeminino de 25 até 29 anosImprimir
25DALILA SÁ197F6200:29:5100:29:51FAMILY RUNNERSCRICIÚMA00:05:5810,0505KFeminino de 60 até 64 anosImprimir
26VICTÓRIA VITORETTI DOS SANTOS1430F2400:29:5600:29:56FAMILY RUNNERSCRICIÚMA00:05:5910,0205KFeminino de 20 até 24 anosImprimir
27MARLETE CARARA1318F5800:30:2000:30:20Tubarão00:06:049,8905KFeminino de 55 até 59 anosImprimir
28LARISSA ALVES DA ROSA2262F2400:30:3900:30:39RUNNING FRIENDSTUBARÃO00:06:089,7905KFeminino de 20 até 24 anosImprimir
29JOSILENE VITORINO DE OLIVEIRA7237F3400:30:4200:30:42RUNNING FRIENDSTUBARÃO00:06:089,7705KFeminino de 30 até 34 anosImprimir
30EDVANIA ROSA2126F4000:30:5700:30:57FORMIGASCRICIÚMA00:06:119,6905KFeminino de 40 até 44 anosImprimir
31MARGARETE FERRAZ3305F4300:31:1500:31:15RUNNING FRIENDSTUBARÃO00:06:159,6005KFeminino de 40 até 44 anosImprimir
32ANGELA MARIA NUNES CRISTIANO237F5600:31:2400:31:24F3 ASSESSORIATUBARÃO00:06:179,5505KFeminino de 55 até 59 anosImprimir
33CAMILA DO NASCIMENTO BRASIL667F3500:31:2400:31:24F3 ASSESSORIATUBARÃO00:06:179,5505KFeminino de 35 até 39 anosImprimir
34STÉPHANIE RODRIGUES8407F3100:32:0000:32:00ALFA ACESSÓRIA ESPORTIVAGravatal00:06:249,3805KFeminino de 30 até 34 anosImprimir
35LEIDIANA MARQUES3266F5700:32:2000:32:20RE9Porto Alegre00:06:289,2805KFeminino de 55 até 59 anosImprimir
36DEISE GOUDINHO FRETTA9106F3400:32:4300:32:43STUDIO MI SILVEIRA FITNESSPedras Grandes00:06:339,1705KFeminino de 30 até 34 anosImprimir
37GISELY MARIA RODRIGUES1179F5100:33:1300:33:13SOB PRESSÃOJoinville00:06:399,0305KFeminino de 50 até 54 anosImprimir
38MIRELLY SILVEIRA JOAQUIM5332F2800:33:1500:33:15STUDIO MI SILVEIRA FITNESSPedras Grandes00:06:399,0205KFeminino de 25 até 29 anosImprimir
39IZABEL BURATO2210F5400:33:1900:33:19CRICIÚMA00:06:409,0005KFeminino de 50 até 54 anosImprimir
40SIMONE PEREIRA MARIA3399F4800:33:3300:33:33RUNNING FRIENDSTUBARÃO00:06:438,9405KFeminino de 45 até 49 anosImprimir
41NINA RODRIGUES2343F6200:33:3500:33:35SOB PRESSÃOJoinville00:06:438,9305KFeminino de 60 até 64 anosImprimir
42SIMONE LUNARDI10445F3400:33:3800:33:38ECOFAQRUNURUSSANGA00:06:448,9205KFeminino de 30 até 34 anosImprimir
43CINTIA BRUNATO1180F3300:33:5300:33:53ON EVENTOStubarão00:06:478,8505KFeminino de 30 até 34 anosImprimir
44DANGELA GONÇALVES DA SILVA498F4500:34:1800:34:18Tubarão00:06:528,7505KFeminino de 45 até 49 anosImprimir
45ELISAMA SOUSA MACIEL12130F3100:34:4900:34:49RUNNING FRIENDSTUBARÃO00:06:588,6205KFeminino de 30 até 34 anosImprimir
46GABRIELA FONSECA13168F3100:35:1400:35:14CRICIÚMA00:07:038,5105KFeminino de 30 até 34 anosImprimir
47MAIARA MEDEIROS MARTINS14291F3200:35:1500:35:15RUNNING FRIENDSTUBARÃO00:07:038,5105KFeminino de 30 até 34 anosImprimir
48MARIA NATALIA FELIPE MUSSOI3313F2400:35:2400:35:24RUNNING FRIENDSTUBARÃO00:07:058,4705KFeminino de 20 até 24 anosImprimir
49VANDERLEIA VITTORETI5424F4700:35:3700:35:37FAMILY RUNNERSCRICIÚMA00:07:078,4205KFeminino de 45 até 49 anosImprimir
50ELIZANDRA ZANELATO DE FAVERI6134F2600:36:0400:36:04STUDIO MI SILVEIRA FITNESSPedras grandes00:07:138,3205KFeminino de 25 até 29 anosImprimir
51MAIRA MACEDO7296F3700:36:3100:36:31TESBA RUNNERSFEIRA DE SANTANA00:07:188,2205KFeminino de 35 até 39 anosImprimir
52ESTEFANI DE ARAUJO ROCHA8140F3600:36:4700:36:47CACHOERINHA00:07:218,1605KFeminino de 35 até 39 anosImprimir
53ELIANE GUEDES4128F4200:37:0000:37:00RUNNING FRIENDSTUBARÃO00:07:248,1105KFeminino de 40 até 44 anosImprimir
54SINARA PAES DA SILVA BERKENBROCK3400F5200:37:1600:37:16RUNNING FRIENDSTUBARÃO00:07:278,0505KFeminino de 50 até 54 anosImprimir
55SINTIA SILVA FRANCISCO9401F3900:37:1900:37:19RUNNING FRIENDSTUBARÃO00:07:288,0405KFeminino de 35 até 39 anosImprimir
56MARIA JULIA DE MEDEIROS PEDROZA2312F1800:38:2000:38:20MOVE ITTUBARÃO00:07:407,8305KFeminino de 18 até 19 anosImprimir
57GISLAINE FRIOLIM6180F4800:39:4100:39:41RUNNING FRIENDSTUBARÃO00:07:567,5605KFeminino de 45 até 49 anosImprimir
58PRISCILA MENDES MARQUES15356F3300:39:4300:39:43RUNNING FRIENDSTUBARÃO00:07:577,5505KFeminino de 30 até 34 anosImprimir
59MARIA CRISTINA C. C. PEDROZA1307F6700:39:4500:39:45MOVE ITTUBARÃO00:07:577,5505KFeminino de 65 até 69 anosImprimir
60KELLY MACIEL16256F3300:40:1500:40:15RUNNING FRIENDSTUBARÃO00:08:037,4505KFeminino de 30 até 34 anosImprimir
61ELISAMELIA ZOCULOTTO7131F4600:40:4600:40:46TESBA RUNNERSTUBARÃO00:08:097,3605KFeminino de 45 até 49 anosImprimir
62ELISETE DOS SANTOS CRISTIANO4132F5700:42:2600:42:26F3 ASSESSORIATUBARÃO00:08:297,0705KFeminino de 55 até 59 anosImprimir
63ANDREIA SERAFIM532F4000:42:4000:42:40Treze de Maio00:08:327,0305KFeminino de 40 até 44 anosImprimir
64KELLEN FERNANDES SERAFIM10254F3600:42:4000:42:40ANDRÉIA SARAIVATreze de maio00:08:327,0305KFeminino de 35 até 39 anosImprimir
65VERA MENDONÇA5427F5900:48:5100:48:51RUNNING FRIENDSTUBARÃO00:09:466,1405KFeminino de 55 até 59 anosImprimir
66JULIANA GOMES CARDOSO7245F2900:50:0700:50:07RUN4HEALTHTubarão00:10:015,9905KFeminino de 25 até 29 anosImprimir
67JULIA ZOCULOTTO3242F1900:52:1600:52:16TESBA RUNNERSTUBARÃO00:10:275,7405KFeminino de 18 até 19 anosImprimir
68MARIA DO CARMO DA SILVA1309F7601:25:1901:25:19TESBA RUNNERSTUBARÃO00:17:043,5205KFeminino de 70 até 99 anosImprimir
pt_BRPortuguese
pt_BRPortuguese